sensor_id;sensor_type;location;lat;lon;timestamp;P1;durP1;ratioP1;P2;durP2;ratioP2
79747;SDS011;69232;47.488;19.268;2023-12-29T00:02:03;41.38;;;19.75;;
79747;SDS011;69232;47.488;19.268;2023-12-29T00:04:29;42.72;;;18.70;;
79747;SDS011;69232;47.488;19.268;2023-12-29T00:06:54;42.65;;;19.75;;
79747;SDS011;69232;47.488;19.268;2023-12-29T00:09:20;42.10;;;19.58;;
79747;SDS011;69232;47.488;19.268;2023-12-29T00:11:51;59.15;;;21.42;;
79747;SDS011;69232;47.488;19.268;2023-12-29T00:14:17;46.53;;;19.73;;
79747;SDS011;69232;47.488;19.268;2023-12-29T00:16:42;50.50;;;21.50;;
79747;SDS011;69232;47.488;19.268;2023-12-29T00:19:09;46.35;;;20.42;;
79747;SDS011;69232;47.488;19.268;2023-12-29T00:21:35;43.45;;;19.60;;
79747;SDS011;69232;47.488;19.268;2023-12-29T00:24:01;45.25;;;19.42;;
79747;SDS011;69232;47.488;19.268;2023-12-29T00:26:26;40.60;;;19.65;;
79747;SDS011;69232;47.488;19.268;2023-12-29T00:28:51;49.28;;;19.17;;
79747;SDS011;69232;47.488;19.268;2023-12-29T00:31:17;38.63;;;18.48;;
79747;SDS011;69232;47.488;19.268;2023-12-29T00:33:43;37.10;;;19.65;;
79747;SDS011;69232;47.488;19.268;2023-12-29T00:36:13;40.33;;;19.23;;
79747;SDS011;69232;47.488;19.268;2023-12-29T00:38:40;47.42;;;20.85;;
79747;SDS011;69232;47.488;19.268;2023-12-29T00:41:05;38.78;;;17.50;;
79747;SDS011;69232;47.488;19.268;2023-12-29T00:43:30;35.45;;;19.55;;
79747;SDS011;69232;47.488;19.268;2023-12-29T00:45:56;40.60;;;18.88;;
79747;SDS011;69232;47.488;19.268;2023-12-29T00:48:21;59.78;;;23.42;;
79747;SDS011;69232;47.488;19.268;2023-12-29T00:50:46;56.85;;;22.05;;
79747;SDS011;69232;47.488;19.268;2023-12-29T00:53:12;52.00;;;22.10;;
79747;SDS011;69232;47.488;19.268;2023-12-29T00:55:37;44.30;;;18.08;;
79747;SDS011;69232;47.488;19.268;2023-12-29T00:58:02;38.38;;;18.55;;
79747;SDS011;69232;47.488;19.268;2023-12-29T01:00:28;44.60;;;19.65;;
79747;SDS011;69232;47.488;19.268;2023-12-29T01:02:53;40.33;;;17.95;;
79747;SDS011;69232;47.488;19.268;2023-12-29T01:05:19;47.25;;;20.75;;
79747;SDS011;69232;47.488;19.268;2023-12-29T01:07:45;56.60;;;21.77;;
79747;SDS011;69232;47.488;19.268;2023-12-29T01:10:11;43.05;;;19.80;;
79747;SDS011;69232;47.488;19.268;2023-12-29T01:12:36;44.97;;;19.33;;
79747;SDS011;69232;47.488;19.268;2023-12-29T01:15:01;45.45;;;22.45;;
79747;SDS011;69232;47.488;19.268;2023-12-29T01:17:27;49.92;;;22.08;;
79747;SDS011;69232;47.488;19.268;2023-12-29T01:19:53;44.85;;;19.83;;
79747;SDS011;69232;47.488;19.268;2023-12-29T01:22:19;47.45;;;21.90;;
79747;SDS011;69232;47.488;19.268;2023-12-29T01:24:44;49.65;;;21.33;;
79747;SDS011;69232;47.488;19.268;2023-12-29T01:27:09;42.72;;;18.88;;
79747;SDS011;69232;47.488;19.268;2023-12-29T01:29:35;46.70;;;21.15;;
79747;SDS011;69232;47.488;19.268;2023-12-29T01:32:00;43.33;;;21.13;;
79747;SDS011;69232;47.488;19.268;2023-12-29T01:34:28;52.92;;;22.25;;
79747;SDS011;69232;47.488;19.268;2023-12-29T01:36:57;45.00;;;19.10;;
79747;SDS011;69232;47.488;19.268;2023-12-29T01:39:23;41.78;;;19.80;;
79747;SDS011;69232;47.488;19.268;2023-12-29T01:41:48;37.25;;;18.10;;
79747;SDS011;69232;47.488;19.268;2023-12-29T01:44:17;38.63;;;18.27;;
79747;SDS011;69232;47.488;19.268;2023-12-29T01:49:11;30.40;;;15.20;;
79747;SDS011;69232;47.488;19.268;2023-12-29T01:51:43;43.05;;;19.23;;
79747;SDS011;69232;47.488;19.268;2023-12-29T01:54:09;34.40;;;15.75;;
79747;SDS011;69232;47.488;19.268;2023-12-29T01:56:35;36.60;;;18.25;;
79747;SDS011;69232;47.488;19.268;2023-12-29T01:59:01;36.35;;;16.85;;
79747;SDS011;69232;47.488;19.268;2023-12-29T02:01:26;37.45;;;16.88;;
79747;SDS011;69232;47.488;19.268;2023-12-29T02:03:52;33.38;;;16.42;;
79747;SDS011;69232;47.488;19.268;2023-12-29T02:06:17;48.17;;;19.80;;
79747;SDS011;69232;47.488;19.268;2023-12-29T02:08:44;32.10;;;16.90;;
79747;SDS011;69232;47.488;19.268;2023-12-29T02:11:10;36.08;;;16.90;;
79747;SDS011;69232;47.488;19.268;2023-12-29T02:13:35;38.75;;;17.42;;
79747;SDS011;69232;47.488;19.268;2023-12-29T02:16:07;45.70;;;19.63;;
79747;SDS011;69232;47.488;19.268;2023-12-29T02:18:36;41.25;;;18.35;;
79747;SDS011;69232;47.488;19.268;2023-12-29T02:21:03;43.08;;;19.20;;
79747;SDS011;69232;47.488;19.268;2023-12-29T02:23:28;41.08;;;19.48;;
79747;SDS011;69232;47.488;19.268;2023-12-29T02:25:55;40.97;;;19.58;;
79747;SDS011;69232;47.488;19.268;2023-12-29T02:28:24;42.92;;;17.70;;
79747;SDS011;69232;47.488;19.268;2023-12-29T02:31:07;44.15;;;20.92;;
79747;SDS011;69232;47.488;19.268;2023-12-29T02:33:37;41.65;;;18.77;;
79747;SDS011;69232;47.488;19.268;2023-12-29T02:36:04;38.22;;;18.27;;
79747;SDS011;69232;47.488;19.268;2023-12-29T02:38:31;38.70;;;16.85;;
79747;SDS011;69232;47.488;19.268;2023-12-29T02:40:56;44.53;;;18.65;;
79747;SDS011;69232;47.488;19.268;2023-12-29T02:43:22;46.75;;;20.17;;
79747;SDS011;69232;47.488;19.268;2023-12-29T02:45:47;51.50;;;22.38;;
79747;SDS011;69232;47.488;19.268;2023-12-29T02:48:13;47.35;;;19.52;;
79747;SDS011;69232;47.488;19.268;2023-12-29T02:50:38;48.25;;;22.23;;
79747;SDS011;69232;47.488;19.268;2023-12-29T02:53:03;41.42;;;18.15;;
79747;SDS011;69232;47.488;19.268;2023-12-29T02:55:29;45.88;;;19.58;;
79747;SDS011;69232;47.488;19.268;2023-12-29T02:57:54;43.15;;;17.35;;
79747;SDS011;69232;47.488;19.268;2023-12-29T03:00:20;46.65;;;18.98;;
79747;SDS011;69232;47.488;19.268;2023-12-29T03:02:45;62.08;;;19.63;;
79747;SDS011;69232;47.488;19.268;2023-12-29T03:05:10;44.30;;;18.50;;
79747;SDS011;69232;47.488;19.268;2023-12-29T03:07:36;65.28;;;21.80;;
79747;SDS011;69232;47.488;19.268;2023-12-29T03:10:02;57.95;;;22.10;;
79747;SDS011;69232;47.488;19.268;2023-12-29T03:12:27;73.35;;;22.52;;
79747;SDS011;69232;47.488;19.268;2023-12-29T03:14:54;59.50;;;20.70;;
79747;SDS011;69232;47.488;19.268;2023-12-29T03:17:19;64.45;;;22.20;;
79747;SDS011;69232;47.488;19.268;2023-12-29T03:19:44;53.85;;;20.17;;
79747;SDS011;69232;47.488;19.268;2023-12-29T03:22:10;57.90;;;20.10;;
79747;SDS011;69232;47.488;19.268;2023-12-29T03:24:36;65.40;;;23.65;;
79747;SDS011;69232;47.488;19.268;2023-12-29T03:27:02;50.75;;;22.13;;
79747;SDS011;69232;47.488;19.268;2023-12-29T03:29:27;62.65;;;20.38;;
79747;SDS011;69232;47.488;19.268;2023-12-29T03:31:52;60.03;;;23.05;;
79747;SDS011;69232;47.488;19.268;2023-12-29T03:34:18;72.03;;;22.88;;
79747;SDS011;69232;47.488;19.268;2023-12-29T03:36:44;68.82;;;22.48;;
79747;SDS011;69232;47.488;19.268;2023-12-29T03:39:10;79.05;;;26.15;;
79747;SDS011;69232;47.488;19.268;2023-12-29T03:41:35;63.22;;;23.60;;
79747;SDS011;69232;47.488;19.268;2023-12-29T03:44:00;69.18;;;22.40;;
79747;SDS011;69232;47.488;19.268;2023-12-29T03:46:26;61.88;;;20.92;;
79747;SDS011;69232;47.488;19.268;2023-12-29T03:48:51;53.50;;;19.23;;
79747;SDS011;69232;47.488;19.268;2023-12-29T03:51:17;58.03;;;20.38;;
79747;SDS011;69232;47.488;19.268;2023-12-29T03:53:43;62.88;;;22.70;;
79747;SDS011;69232;47.488;19.268;2023-12-29T03:56:08;80.25;;;20.52;;
79747;SDS011;69232;47.488;19.268;2023-12-29T03:58:37;58.22;;;21.90;;
79747;SDS011;69232;47.488;19.268;2023-12-29T04:01:03;76.28;;;23.20;;
79747;SDS011;69232;47.488;19.268;2023-12-29T04:03:28;86.93;;;22.95;;
79747;SDS011;69232;47.488;19.268;2023-12-29T04:05:54;72.82;;;21.88;;
79747;SDS011;69232;47.488;19.268;2023-12-29T04:08:19;54.13;;;20.30;;
79747;SDS011;69232;47.488;19.268;2023-12-29T04:10:44;69.18;;;21.60;;
79747;SDS011;69232;47.488;19.268;2023-12-29T04:13:10;61.45;;;21.23;;
79747;SDS011;69232;47.488;19.268;2023-12-29T04:15:35;55.40;;;19.13;;
79747;SDS011;69232;47.488;19.268;2023-12-29T04:18:01;62.10;;;20.45;;
79747;SDS011;69232;47.488;19.268;2023-12-29T04:20:26;62.85;;;21.15;;
79747;SDS011;69232;47.488;19.268;2023-12-29T04:22:51;51.63;;;21.50;;
79747;SDS011;69232;47.488;19.268;2023-12-29T04:25:17;43.90;;;20.35;;
79747;SDS011;69232;47.488;19.268;2023-12-29T04:27:42;66.68;;;21.17;;
79747;SDS011;69232;47.488;19.268;2023-12-29T04:30:08;53.22;;;20.35;;
79747;SDS011;69232;47.488;19.268;2023-12-29T04:32:33;58.55;;;18.50;;
79747;SDS011;69232;47.488;19.268;2023-12-29T04:34:59;46.25;;;19.80;;
79747;SDS011;69232;47.488;19.268;2023-12-29T04:37:24;54.63;;;21.05;;
79747;SDS011;69232;47.488;19.268;2023-12-29T04:39:49;48.00;;;20.42;;
79747;SDS011;69232;47.488;19.268;2023-12-29T04:42:15;45.83;;;19.55;;
79747;SDS011;69232;47.488;19.268;2023-12-29T04:44:41;43.22;;;17.98;;
79747;SDS011;69232;47.488;19.268;2023-12-29T04:47:07;49.38;;;18.35;;
79747;SDS011;69232;47.488;19.268;2023-12-29T04:49:32;38.60;;;18.27;;
79747;SDS011;69232;47.488;19.268;2023-12-29T04:51:58;50.10;;;20.45;;
79747;SDS011;69232;47.488;19.268;2023-12-29T04:54:24;38.63;;;17.90;;
79747;SDS011;69232;47.488;19.268;2023-12-29T04:56:49;48.53;;;18.08;;
79747;SDS011;69232;47.488;19.268;2023-12-29T04:59:15;42.90;;;18.88;;
79747;SDS011;69232;47.488;19.268;2023-12-29T05:01:41;36.70;;;16.70;;
79747;SDS011;69232;47.488;19.268;2023-12-29T05:04:06;40.20;;;16.90;;
79747;SDS011;69232;47.488;19.268;2023-12-29T05:06:31;42.25;;;17.55;;
79747;SDS011;69232;47.488;19.268;2023-12-29T05:08:56;45.72;;;16.33;;
79747;SDS011;69232;47.488;19.268;2023-12-29T05:11:22;42.58;;;17.55;;
79747;SDS011;69232;47.488;19.268;2023-12-29T05:13:47;42.80;;;18.73;;
79747;SDS011;69232;47.488;19.268;2023-12-29T05:16:13;45.40;;;17.67;;
79747;SDS011;69232;47.488;19.268;2023-12-29T05:18:38;44.95;;;18.00;;
79747;SDS011;69232;47.488;19.268;2023-12-29T05:21:03;41.03;;;17.48;;
79747;SDS011;69232;47.488;19.268;2023-12-29T05:23:29;37.25;;;16.73;;
79747;SDS011;69232;47.488;19.268;2023-12-29T05:25:54;43.45;;;18.77;;
79747;SDS011;69232;47.488;19.268;2023-12-29T05:28:20;36.63;;;16.30;;
79747;SDS011;69232;47.488;19.268;2023-12-29T05:30:45;38.92;;;17.27;;
79747;SDS011;69232;47.488;19.268;2023-12-29T05:33:10;40.30;;;17.83;;
79747;SDS011;69232;47.488;19.268;2023-12-29T05:35:36;39.92;;;17.60;;
79747;SDS011;69232;47.488;19.268;2023-12-29T05:38:01;37.25;;;16.52;;
79747;SDS011;69232;47.488;19.268;2023-12-29T05:40:27;39.90;;;16.45;;
79747;SDS011;69232;47.488;19.268;2023-12-29T05:42:53;34.88;;;16.15;;
79747;SDS011;69232;47.488;19.268;2023-12-29T05:45:18;39.25;;;18.58;;
79747;SDS011;69232;47.488;19.268;2023-12-29T05:47:44;36.15;;;17.02;;
79747;SDS011;69232;47.488;19.268;2023-12-29T05:50:09;36.53;;;16.85;;
79747;SDS011;69232;47.488;19.268;2023-12-29T05:52:35;35.28;;;15.90;;
79747;SDS011;69232;47.488;19.268;2023-12-29T05:55:00;41.28;;;17.83;;
79747;SDS011;69232;47.488;19.268;2023-12-29T05:57:25;41.95;;;17.60;;
79747;SDS011;69232;47.488;19.268;2023-12-29T05:59:51;43.55;;;18.08;;
79747;SDS011;69232;47.488;19.268;2023-12-29T06:02:17;45.38;;;17.45;;
79747;SDS011;69232;47.488;19.268;2023-12-29T06:04:42;39.17;;;17.27;;
79747;SDS011;69232;47.488;19.268;2023-12-29T06:07:07;43.22;;;17.65;;
79747;SDS011;69232;47.488;19.268;2023-12-29T06:09:33;39.88;;;18.00;;
79747;SDS011;69232;47.488;19.268;2023-12-29T06:11:58;37.25;;;16.73;;
79747;SDS011;69232;47.488;19.268;2023-12-29T06:14:24;40.42;;;17.85;;
79747;SDS011;69232;47.488;19.268;2023-12-29T06:16:50;43.28;;;17.73;;
79747;SDS011;69232;47.488;19.268;2023-12-29T06:19:17;41.83;;;16.40;;
79747;SDS011;69232;47.488;19.268;2023-12-29T06:21:42;39.53;;;17.35;;
79747;SDS011;69232;47.488;19.268;2023-12-29T06:24:08;42.33;;;15.48;;
79747;SDS011;69232;47.488;19.268;2023-12-29T06:26:34;35.60;;;16.23;;
79747;SDS011;69232;47.488;19.268;2023-12-29T06:29:00;39.97;;;17.27;;
79747;SDS011;69232;47.488;19.268;2023-12-29T06:31:25;38.20;;;18.65;;
79747;SDS011;69232;47.488;19.268;2023-12-29T06:33:51;41.45;;;16.88;;
79747;SDS011;69232;47.488;19.268;2023-12-29T06:36:16;36.92;;;17.45;;
79747;SDS011;69232;47.488;19.268;2023-12-29T06:38:41;49.15;;;16.00;;
79747;SDS011;69232;47.488;19.268;2023-12-29T06:41:10;37.40;;;15.45;;
79747;SDS011;69232;47.488;19.268;2023-12-29T06:43:37;38.40;;;17.55;;
79747;SDS011;69232;47.488;19.268;2023-12-29T06:46:02;37.22;;;16.25;;
79747;SDS011;69232;47.488;19.268;2023-12-29T06:48:27;40.63;;;18.27;;
79747;SDS011;69232;47.488;19.268;2023-12-29T06:50:53;36.97;;;17.50;;
79747;SDS011;69232;47.488;19.268;2023-12-29T06:53:18;30.45;;;13.90;;
79747;SDS011;69232;47.488;19.268;2023-12-29T06:55:43;31.45;;;15.20;;
79747;SDS011;69232;47.488;19.268;2023-12-29T06:58:09;32.78;;;15.73;;
79747;SDS011;69232;47.488;19.268;2023-12-29T07:00:34;31.15;;;14.98;;
79747;SDS011;69232;47.488;19.268;2023-12-29T07:03:00;37.80;;;16.77;;
79747;SDS011;69232;47.488;19.268;2023-12-29T07:05:26;36.63;;;17.13;;
79747;SDS011;69232;47.488;19.268;2023-12-29T07:07:51;35.92;;;17.83;;
79747;SDS011;69232;47.488;19.268;2023-12-29T07:10:16;41.58;;;18.35;;
79747;SDS011;69232;47.488;19.268;2023-12-29T07:12:42;38.13;;;17.98;;
79747;SDS011;69232;47.488;19.268;2023-12-29T07:15:07;38.85;;;18.15;;
79747;SDS011;69232;47.488;19.268;2023-12-29T07:17:33;39.53;;;19.90;;
79747;SDS011;69232;47.488;19.268;2023-12-29T07:19:58;40.10;;;20.17;;
79747;SDS011;69232;47.488;19.268;2023-12-29T07:22:24;46.17;;;19.40;;
79747;SDS011;69232;47.488;19.268;2023-12-29T07:24:49;39.47;;;18.52;;
79747;SDS011;69232;47.488;19.268;2023-12-29T07:27:14;39.03;;;19.13;;
79747;SDS011;69232;47.488;19.268;2023-12-29T07:29:40;41.20;;;18.73;;
79747;SDS011;69232;47.488;19.268;2023-12-29T07:32:06;42.85;;;20.42;;
79747;SDS011;69232;47.488;19.268;2023-12-29T07:34:31;40.42;;;19.33;;
79747;SDS011;69232;47.488;19.268;2023-12-29T07:36:57;45.30;;;19.95;;
79747;SDS011;69232;47.488;19.268;2023-12-29T07:39:23;50.70;;;21.90;;
79747;SDS011;69232;47.488;19.268;2023-12-29T07:41:49;46.38;;;20.95;;
79747;SDS011;69232;47.488;19.268;2023-12-29T07:44:16;42.10;;;18.17;;
79747;SDS011;69232;47.488;19.268;2023-12-29T07:46:42;45.97;;;22.02;;
79747;SDS011;69232;47.488;19.268;2023-12-29T07:49:07;53.00;;;17.85;;
79747;SDS011;69232;47.488;19.268;2023-12-29T07:51:33;47.85;;;19.45;;
79747;SDS011;69232;47.488;19.268;2023-12-29T07:53:58;53.20;;;20.48;;
79747;SDS011;69232;47.488;19.268;2023-12-29T07:56:24;59.38;;;20.60;;
79747;SDS011;69232;47.488;19.268;2023-12-29T07:58:49;58.75;;;20.83;;
79747;SDS011;69232;47.488;19.268;2023-12-29T08:01:14;55.83;;;21.42;;
79747;SDS011;69232;47.488;19.268;2023-12-29T08:03:40;42.63;;;19.08;;
79747;SDS011;69232;47.488;19.268;2023-12-29T08:06:05;52.38;;;18.95;;
79747;SDS011;69232;47.488;19.268;2023-12-29T08:08:31;57.83;;;21.92;;
79747;SDS011;69232;47.488;19.268;2023-12-29T08:10:56;43.15;;;19.27;;
79747;SDS011;69232;47.488;19.268;2023-12-29T08:13:21;63.13;;;24.08;;
79747;SDS011;69232;47.488;19.268;2023-12-29T08:15:47;59.63;;;22.77;;
79747;SDS011;69232;47.488;19.268;2023-12-29T08:18:12;48.05;;;21.80;;
79747;SDS011;69232;47.488;19.268;2023-12-29T08:20:38;61.22;;;22.17;;
79747;SDS011;69232;47.488;19.268;2023-12-29T08:23:03;51.60;;;22.77;;
79747;SDS011;69232;47.488;19.268;2023-12-29T08:25:29;52.00;;;21.83;;
79747;SDS011;69232;47.488;19.268;2023-12-29T08:27:55;57.05;;;21.30;;
79747;SDS011;69232;47.488;19.268;2023-12-29T08:30:21;52.10;;;22.17;;
79747;SDS011;69232;47.488;19.268;2023-12-29T08:32:46;43.45;;;21.63;;
79747;SDS011;69232;47.488;19.268;2023-12-29T08:35:12;46.75;;;21.30;;
79747;SDS011;69232;47.488;19.268;2023-12-29T08:37:37;52.13;;;22.10;;
79747;SDS011;69232;47.488;19.268;2023-12-29T08:40:03;44.20;;;20.73;;
79747;SDS011;69232;47.488;19.268;2023-12-29T08:42:28;44.53;;;21.30;;
79747;SDS011;69232;47.488;19.268;2023-12-29T08:44:54;49.25;;;22.08;;
79747;SDS011;69232;47.488;19.268;2023-12-29T08:47:19;49.55;;;21.65;;
79747;SDS011;69232;47.488;19.268;2023-12-29T08:49:45;48.70;;;22.25;;
79747;SDS011;69232;47.488;19.268;2023-12-29T08:52:11;51.58;;;22.80;;
79747;SDS011;69232;47.488;19.268;2023-12-29T08:54:36;51.40;;;24.95;;
79747;SDS011;69232;47.488;19.268;2023-12-29T08:57:02;47.17;;;23.25;;
79747;SDS011;69232;47.488;19.268;2023-12-29T08:59:28;51.47;;;23.95;;
79747;SDS011;69232;47.488;19.268;2023-12-29T09:01:54;46.70;;;22.13;;
79747;SDS011;69232;47.488;19.268;2023-12-29T09:04:19;58.80;;;24.90;;
79747;SDS011;69232;47.488;19.268;2023-12-29T09:06:44;52.28;;;24.75;;
79747;SDS011;69232;47.488;19.268;2023-12-29T09:09:10;49.92;;;24.35;;
79747;SDS011;69232;47.488;19.268;2023-12-29T09:11:38;60.78;;;24.65;;
79747;SDS011;69232;47.488;19.268;2023-12-29T09:14:12;46.55;;;20.75;;
79747;SDS011;69232;47.488;19.268;2023-12-29T09:16:38;40.47;;;20.83;;
79747;SDS011;69232;47.488;19.268;2023-12-29T09:19:05;37.53;;;19.83;;
79747;SDS011;69232;47.488;19.268;2023-12-29T09:21:30;39.25;;;18.38;;
79747;SDS011;69232;47.488;19.268;2023-12-29T09:23:56;38.08;;;17.48;;
79747;SDS011;69232;47.488;19.268;2023-12-29T09:26:21;34.20;;;17.58;;
79747;SDS011;69232;47.488;19.268;2023-12-29T09:28:47;30.73;;;15.48;;
79747;SDS011;69232;47.488;19.268;2023-12-29T09:31:12;35.78;;;15.63;;
79747;SDS011;69232;47.488;19.268;2023-12-29T09:33:38;38.58;;;17.55;;
79747;SDS011;69232;47.488;19.268;2023-12-29T09:36:03;32.33;;;14.13;;
79747;SDS011;69232;47.488;19.268;2023-12-29T09:38:29;31.20;;;15.60;;
79747;SDS011;69232;47.488;19.268;2023-12-29T09:40:55;30.08;;;14.27;;
79747;SDS011;69232;47.488;19.268;2023-12-29T09:43:25;28.02;;;13.90;;
79747;SDS011;69232;47.488;19.268;2023-12-29T09:45:51;29.08;;;13.90;;
79747;SDS011;69232;47.488;19.268;2023-12-29T09:48:17;33.33;;;14.80;;
79747;SDS011;69232;47.488;19.268;2023-12-29T09:50:44;30.63;;;15.00;;
79747;SDS011;69232;47.488;19.268;2023-12-29T09:53:10;35.35;;;16.45;;
79747;SDS011;69232;47.488;19.268;2023-12-29T09:55:37;27.02;;;15.07;;
79747;SDS011;69232;47.488;19.268;2023-12-29T09:58:03;27.48;;;14.52;;
79747;SDS011;69232;47.488;19.268;2023-12-29T10:00:30;25.15;;;12.60;;
79747;SDS011;69232;47.488;19.268;2023-12-29T10:02:56;32.28;;;15.20;;
79747;SDS011;69232;47.488;19.268;2023-12-29T10:05:21;26.77;;;14.40;;
79747;SDS011;69232;47.488;19.268;2023-12-29T10:07:47;31.38;;;15.05;;
79747;SDS011;69232;47.488;19.268;2023-12-29T10:10:14;31.63;;;14.80;;
79747;SDS011;69232;47.488;19.268;2023-12-29T10:12:41;30.20;;;14.13;;
79747;SDS011;69232;47.488;19.268;2023-12-29T10:15:12;30.92;;;16.10;;
79747;SDS011;69232;47.488;19.268;2023-12-29T10:17:51;29.63;;;15.57;;
79747;SDS011;69232;47.488;19.268;2023-12-29T10:23:13;29.60;;;15.50;;
79747;SDS011;69232;47.488;19.268;2023-12-29T10:25:43;31.02;;;15.88;;
79747;SDS011;69232;47.488;19.268;2023-12-29T10:28:11;31.92;;;15.90;;
79747;SDS011;69232;47.488;19.268;2023-12-29T10:30:38;33.40;;;15.77;;
79747;SDS011;69232;47.488;19.268;2023-12-29T10:33:03;29.00;;;14.90;;
79747;SDS011;69232;47.488;19.268;2023-12-29T10:35:29;32.78;;;15.82;;
79747;SDS011;69232;47.488;19.268;2023-12-29T10:38:08;27.17;;;15.13;;
79747;SDS011;69232;47.488;19.268;2023-12-29T10:40:35;34.28;;;18.08;;
79747;SDS011;69232;47.488;19.268;2023-12-29T10:43:00;23.05;;;13.27;;
79747;SDS011;69232;47.488;19.268;2023-12-29T10:47:56;32.73;;;15.83;;
79747;SDS011;69232;47.488;19.268;2023-12-29T10:50:24;35.53;;;16.27;;
79747;SDS011;69232;47.488;19.268;2023-12-29T10:52:50;31.60;;;15.18;;
79747;SDS011;69232;47.488;19.268;2023-12-29T10:55:15;34.20;;;16.83;;
79747;SDS011;69232;47.488;19.268;2023-12-29T10:57:41;28.90;;;14.95;;
79747;SDS011;69232;47.488;19.268;2023-12-29T11:00:07;30.02;;;15.43;;
79747;SDS011;69232;47.488;19.268;2023-12-29T11:02:33;35.03;;;16.35;;
79747;SDS011;69232;47.488;19.268;2023-12-29T11:05:06;35.35;;;16.90;;
79747;SDS011;69232;47.488;19.268;2023-12-29T11:10:08;30.85;;;14.75;;
79747;SDS011;69232;47.488;19.268;2023-12-29T11:12:35;27.02;;;12.40;;
79747;SDS011;69232;47.488;19.268;2023-12-29T11:15:01;28.63;;;12.48;;
79747;SDS011;69232;47.488;19.268;2023-12-29T11:17:29;24.05;;;12.80;;
79747;SDS011;69232;47.488;19.268;2023-12-29T11:19:55;23.52;;;12.13;;
79747;SDS011;69232;47.488;19.268;2023-12-29T11:22:23;18.20;;;9.27;;
79747;SDS011;69232;47.488;19.268;2023-12-29T11:24:49;15.20;;;9.18;;
79747;SDS011;69232;47.488;19.268;2023-12-29T11:27:15;17.55;;;8.82;;
79747;SDS011;69232;47.488;19.268;2023-12-29T11:29:41;16.65;;;8.73;;
79747;SDS011;69232;47.488;19.268;2023-12-29T11:32:08;12.35;;;7.10;;
79747;SDS011;69232;47.488;19.268;2023-12-29T11:34:48;11.75;;;6.80;;
79747;SDS011;69232;47.488;19.268;2023-12-29T11:40:17;14.63;;;7.55;;
79747;SDS011;69232;47.488;19.268;2023-12-29T11:42:42;14.10;;;7.40;;
79747;SDS011;69232;47.488;19.268;2023-12-29T11:45:24;13.48;;;6.93;;
79747;SDS011;69232;47.488;19.268;2023-12-29T11:48:00;14.23;;;6.95;;
79747;SDS011;69232;47.488;19.268;2023-12-29T11:50:32;11.43;;;5.60;;
79747;SDS011;69232;47.488;19.268;2023-12-29T11:52:58;14.80;;;5.85;;
79747;SDS011;69232;47.488;19.268;2023-12-29T11:55:28;11.55;;;6.15;;
79747;SDS011;69232;47.488;19.268;2023-12-29T11:58:01;11.43;;;6.50;;
79747;SDS011;69232;47.488;19.268;2023-12-29T12:00:40;13.38;;;7.07;;
79747;SDS011;69232;47.488;19.268;2023-12-29T12:03:14;13.52;;;7.35;;
79747;SDS011;69232;47.488;19.268;2023-12-29T12:10:54;12.88;;;6.85;;
79747;SDS011;69232;47.488;19.268;2023-12-29T12:16:07;14.98;;;7.90;;
79747;SDS011;69232;47.488;19.268;2023-12-29T12:18:33;14.27;;;7.97;;
79747;SDS011;69232;47.488;19.268;2023-12-29T12:20:59;16.27;;;9.07;;
79747;SDS011;69232;47.488;19.268;2023-12-29T12:23:25;19.23;;;9.13;;
79747;SDS011;69232;47.488;19.268;2023-12-29T12:25:57;15.55;;;8.43;;
79747;SDS011;69232;47.488;19.268;2023-12-29T12:28:24;17.00;;;7.97;;
79747;SDS011;69232;47.488;19.268;2023-12-29T12:30:50;17.63;;;9.68;;
79747;SDS011;69232;47.488;19.268;2023-12-29T12:33:15;16.48;;;9.13;;
79747;SDS011;69232;47.488;19.268;2023-12-29T12:35:40;15.75;;;8.32;;
79747;SDS011;69232;47.488;19.268;2023-12-29T12:38:10;15.07;;;8.88;;
79747;SDS011;69232;47.488;19.268;2023-12-29T12:40:36;16.73;;;9.07;;
79747;SDS011;69232;47.488;19.268;2023-12-29T12:43:03;16.23;;;8.85;;
79747;SDS011;69232;47.488;19.268;2023-12-29T12:45:28;18.25;;;9.32;;
79747;SDS011;69232;47.488;19.268;2023-12-29T12:48:05;21.23;;;9.85;;
79747;SDS011;69232;47.488;19.268;2023-12-29T12:50:42;20.95;;;9.20;;
79747;SDS011;69232;47.488;19.268;2023-12-29T12:53:08;22.92;;;10.02;;
79747;SDS011;69232;47.488;19.268;2023-12-29T12:55:34;19.08;;;9.95;;
79747;SDS011;69232;47.488;19.268;2023-12-29T12:57:59;18.13;;;9.75;;
79747;SDS011;69232;47.488;19.268;2023-12-29T13:00:25;19.20;;;10.80;;
79747;SDS011;69232;47.488;19.268;2023-12-29T13:02:51;19.08;;;10.18;;
79747;SDS011;69232;47.488;19.268;2023-12-29T13:05:17;16.77;;;9.48;;
79747;SDS011;69232;47.488;19.268;2023-12-29T13:07:43;16.98;;;9.82;;
79747;SDS011;69232;47.488;19.268;2023-12-29T13:10:08;17.02;;;9.35;;
79747;SDS011;69232;47.488;19.268;2023-12-29T13:12:34;20.02;;;10.50;;
79747;SDS011;69232;47.488;19.268;2023-12-29T13:15:05;15.68;;;8.65;;
79747;SDS011;69232;47.488;19.268;2023-12-29T13:17:34;18.35;;;8.32;;
79747;SDS011;69232;47.488;19.268;2023-12-29T13:19:59;15.25;;;8.38;;
79747;SDS011;69232;47.488;19.268;2023-12-29T13:22:25;20.63;;;9.30;;
79747;SDS011;69232;47.488;19.268;2023-12-29T13:24:53;18.08;;;9.35;;
79747;SDS011;69232;47.488;19.268;2023-12-29T13:27:19;20.90;;;9.55;;
79747;SDS011;69232;47.488;19.268;2023-12-29T13:29:46;17.42;;;9.45;;
79747;SDS011;69232;47.488;19.268;2023-12-29T13:32:19;15.18;;;8.10;;
79747;SDS011;69232;47.488;19.268;2023-12-29T13:40:35;17.65;;;10.32;;
79747;SDS011;69232;47.488;19.268;2023-12-29T13:43:06;20.13;;;10.43;;
79747;SDS011;69232;47.488;19.268;2023-12-29T13:45:33;18.15;;;9.77;;
79747;SDS011;69232;47.488;19.268;2023-12-29T13:48:00;24.00;;;11.32;;
79747;SDS011;69232;47.488;19.268;2023-12-29T13:50:26;18.70;;;10.10;;
79747;SDS011;69232;47.488;19.268;2023-12-29T13:52:51;23.35;;;11.38;;
79747;SDS011;69232;47.488;19.268;2023-12-29T13:55:21;22.60;;;11.10;;
79747;SDS011;69232;47.488;19.268;2023-12-29T13:57:49;20.30;;;11.18;;
79747;SDS011;69232;47.488;19.268;2023-12-29T14:05:47;24.65;;;12.85;;
79747;SDS011;69232;47.488;19.268;2023-12-29T14:08:18;23.95;;;12.40;;
79747;SDS011;69232;47.488;19.268;2023-12-29T14:11:08;25.35;;;11.77;;
79747;SDS011;69232;47.488;19.268;2023-12-29T14:13:34;23.98;;;12.30;;
79747;SDS011;69232;47.488;19.268;2023-12-29T14:15:59;22.00;;;12.15;;
79747;SDS011;69232;47.488;19.268;2023-12-29T14:18:36;25.55;;;13.30;;
79747;SDS011;69232;47.488;19.268;2023-12-29T14:21:21;22.63;;;12.10;;
79747;SDS011;69232;47.488;19.268;2023-12-29T14:26:26;22.45;;;11.70;;
79747;SDS011;69232;47.488;19.268;2023-12-29T14:29:04;21.88;;;12.00;;
79747;SDS011;69232;47.488;19.268;2023-12-29T14:31:34;22.73;;;12.52;;
79747;SDS011;69232;47.488;19.268;2023-12-29T14:34:01;25.17;;;12.52;;
79747;SDS011;69232;47.488;19.268;2023-12-29T14:36:26;19.65;;;10.80;;
79747;SDS011;69232;47.488;19.268;2023-12-29T14:38:52;27.73;;;12.18;;
79747;SDS011;69232;47.488;19.268;2023-12-29T14:41:17;22.27;;;11.10;;
79747;SDS011;69232;47.488;19.268;2023-12-29T14:43:43;21.67;;;12.45;;